sensor_id;sensor_type;location;lat;lon;timestamp;temperature;humidity
25536;DHT22;13431;51.352;6.412;2022-07-18T00:01:09;14.80;99.90
25536;DHT22;13431;51.352;6.412;2022-07-18T00:03:36;14.80;99.90
25536;DHT22;13431;51.352;6.412;2022-07-18T00:06:03;14.70;99.90
25536;DHT22;13431;51.352;6.412;2022-07-18T00:08:31;14.70;99.90
25536;DHT22;13431;51.352;6.412;2022-07-18T00:10:58;14.60;99.90
25536;DHT22;13431;51.352;6.412;2022-07-18T00:13:25;14.50;99.90
25536;DHT22;13431;51.352;6.412;2022-07-18T00:15:53;14.50;99.90
25536;DHT22;13431;51.352;6.412;2022-07-18T00:18:21;14.50;99.90
25536;DHT22;13431;51.352;6.412;2022-07-18T00:20:48;14.50;99.90
25536;DHT22;13431;51.352;6.412;2022-07-18T00:23:15;14.50;99.90
25536;DHT22;13431;51.352;6.412;2022-07-18T00:25:43;14.50;99.90
25536;DHT22;13431;51.352;6.412;2022-07-18T00:28:13;14.50;99.90
25536;DHT22;13431;51.352;6.412;2022-07-18T00:30:40;14.50;99.90
25536;DHT22;13431;51.352;6.412;2022-07-18T00:33:08;14.50;99.90
25536;DHT22;13431;51.352;6.412;2022-07-18T00:35:35;14.40;99.90
25536;DHT22;13431;51.352;6.412;2022-07-18T00:38:03;14.40;99.90
25536;DHT22;13431;51.352;6.412;2022-07-18T00:40:31;14.30;99.90
25536;DHT22;13431;51.352;6.412;2022-07-18T00:42:59;14.30;99.90
25536;DHT22;13431;51.352;6.412;2022-07-18T00:45:27;14.30;99.90
25536;DHT22;13431;51.352;6.412;2022-07-18T00:47:54;14.20;99.90
25536;DHT22;13431;51.352;6.412;2022-07-18T00:50:23;14.10;99.90
25536;DHT22;13431;51.352;6.412;2022-07-18T00:52:50;14.00;99.90
25536;DHT22;13431;51.352;6.412;2022-07-18T00:55:18;14.00;99.90
25536;DHT22;13431;51.352;6.412;2022-07-18T00:57:45;13.90;99.90
25536;DHT22;13431;51.352;6.412;2022-07-18T01:00:14;13.90;99.90
25536;DHT22;13431;51.352;6.412;2022-07-18T01:03:00;13.80;99.90
25536;DHT22;13431;51.352;6.412;2022-07-18T01:05:28;13.80;99.90
25536;DHT22;13431;51.352;6.412;2022-07-18T01:07:55;13.70;99.90
25536;DHT22;13431;51.352;6.412;2022-07-18T01:10:22;13.70;99.90
25536;DHT22;13431;51.352;6.412;2022-07-18T01:12:50;13.60;99.90
25536;DHT22;13431;51.352;6.412;2022-07-18T01:15:17;13.60;99.90
25536;DHT22;13431;51.352;6.412;2022-07-18T01:17:45;13.50;99.90
25536;DHT22;13431;51.352;6.412;2022-07-18T01:20:12;13.50;99.90
25536;DHT22;13431;51.352;6.412;2022-07-18T01:22:40;13.40;99.90
25536;DHT22;13431;51.352;6.412;2022-07-18T01:25:09;13.40;99.90
25536;DHT22;13431;51.352;6.412;2022-07-18T01:27:38;13.40;99.90
25536;DHT22;13431;51.352;6.412;2022-07-18T01:30:05;13.30;99.90
25536;DHT22;13431;51.352;6.412;2022-07-18T01:32:33;13.30;99.90
25536;DHT22;13431;51.352;6.412;2022-07-18T01:35:01;13.30;99.90
25536;DHT22;13431;51.352;6.412;2022-07-18T01:37:28;13.30;99.90
25536;DHT22;13431;51.352;6.412;2022-07-18T01:39:55;13.30;99.90
25536;DHT22;13431;51.352;6.412;2022-07-18T01:42:23;13.30;99.90
25536;DHT22;13431;51.352;6.412;2022-07-18T01:44:50;13.30;99.90
25536;DHT22;13431;51.352;6.412;2022-07-18T01:47:18;13.30;99.90
25536;DHT22;13431;51.352;6.412;2022-07-18T01:49:45;13.30;99.90
25536;DHT22;13431;51.352;6.412;2022-07-18T01:52:13;13.30;99.90
25536;DHT22;13431;51.352;6.412;2022-07-18T01:54:43;13.40;99.90
25536;DHT22;13431;51.352;6.412;2022-07-18T01:57:10;13.40;99.90
25536;DHT22;13431;51.352;6.412;2022-07-18T01:59:37;13.30;99.90
25536;DHT22;13431;51.352;6.412;2022-07-18T02:02:05;13.30;99.90
25536;DHT22;13431;51.352;6.412;2022-07-18T02:04:35;13.30;99.90
25536;DHT22;13431;51.352;6.412;2022-07-18T02:07:22;13.30;99.90
25536;DHT22;13431;51.352;6.412;2022-07-18T02:09:49;13.30;99.90
25536;DHT22;13431;51.352;6.412;2022-07-18T02:12:17;13.20;99.90
25536;DHT22;13431;51.352;6.412;2022-07-18T02:14:44;13.20;99.90
25536;DHT22;13431;51.352;6.412;2022-07-18T02:17:11;13.10;99.90
25536;DHT22;13431;51.352;6.412;2022-07-18T02:19:39;13.00;99.90
25536;DHT22;13431;51.352;6.412;2022-07-18T02:22:06;13.10;99.90
25536;DHT22;13431;51.352;6.412;2022-07-18T02:24:34;13.10;99.90
25536;DHT22;13431;51.352;6.412;2022-07-18T02:27:01;13.10;99.90
25536;DHT22;13431;51.352;6.412;2022-07-18T02:29:29;13.10;99.90
25536;DHT22;13431;51.352;6.412;2022-07-18T02:31:56;13.00;99.90
25536;DHT22;13431;51.352;6.412;2022-07-18T02:34:24;13.00;99.90
25536;DHT22;13431;51.352;6.412;2022-07-18T02:36:51;13.00;99.90
25536;DHT22;13431;51.352;6.412;2022-07-18T02:39:19;13.00;99.90
25536;DHT22;13431;51.352;6.412;2022-07-18T02:41:47;13.00;99.90
25536;DHT22;13431;51.352;6.412;2022-07-18T02:44:14;13.00;99.90
25536;DHT22;13431;51.352;6.412;2022-07-18T02:46:42;12.90;99.90
25536;DHT22;13431;51.352;6.412;2022-07-18T02:49:10;12.90;99.90
25536;DHT22;13431;51.352;6.412;2022-07-18T02:51:59;12.90;99.90
25536;DHT22;13431;51.352;6.412;2022-07-18T02:54:28;12.80;99.90
25536;DHT22;13431;51.352;6.412;2022-07-18T02:56:56;12.80;99.90
25536;DHT22;13431;51.352;6.412;2022-07-18T02:59:25;12.90;99.90
25536;DHT22;13431;51.352;6.412;2022-07-18T03:01:53;12.90;99.90
25536;DHT22;13431;51.352;6.412;2022-07-18T03:04:21;12.80;99.90
25536;DHT22;13431;51.352;6.412;2022-07-18T03:06:50;12.70;99.90
25536;DHT22;13431;51.352;6.412;2022-07-18T03:09:17;12.70;99.90
25536;DHT22;13431;51.352;6.412;2022-07-18T03:11:45;12.60;99.90
25536;DHT22;13431;51.352;6.412;2022-07-18T03:14:13;12.60;99.90
25536;DHT22;13431;51.352;6.412;2022-07-18T03:16:40;12.60;99.90
25536;DHT22;13431;51.352;6.412;2022-07-18T03:19:08;12.60;99.90
25536;DHT22;13431;51.352;6.412;2022-07-18T03:21:35;12.60;99.90
25536;DHT22;13431;51.352;6.412;2022-07-18T03:24:03;12.60;99.90
25536;DHT22;13431;51.352;6.412;2022-07-18T03:26:31;12.60;99.90
25536;DHT22;13431;51.352;6.412;2022-07-18T03:28:59;12.60;99.90
25536;DHT22;13431;51.352;6.412;2022-07-18T03:31:26;12.60;99.90
25536;DHT22;13431;51.352;6.412;2022-07-18T03:33:55;12.50;99.90
25536;DHT22;13431;51.352;6.412;2022-07-18T03:36:22;12.60;99.90
25536;DHT22;13431;51.352;6.412;2022-07-18T03:38:50;12.60;99.90
25536;DHT22;13431;51.352;6.412;2022-07-18T03:41:17;12.50;99.90
25536;DHT22;13431;51.352;6.412;2022-07-18T03:43:44;12.50;99.90
25536;DHT22;13431;51.352;6.412;2022-07-18T03:46:12;12.50;99.90
25536;DHT22;13431;51.352;6.412;2022-07-18T03:48:39;12.50;99.90
25536;DHT22;13431;51.352;6.412;2022-07-18T03:51:07;12.50;99.90
25536;DHT22;13431;51.352;6.412;2022-07-18T03:53:34;12.50;99.90
25536;DHT22;13431;51.352;6.412;2022-07-18T03:56:01;12.60;99.90
25536;DHT22;13431;51.352;6.412;2022-07-18T03:58:29;12.60;99.90
25536;DHT22;13431;51.352;6.412;2022-07-18T04:00:56;12.60;99.90
25536;DHT22;13431;51.352;6.412;2022-07-18T04:03:24;12.70;99.90
25536;DHT22;13431;51.352;6.412;2022-07-18T04:05:51;12.70;99.90
25536;DHT22;13431;51.352;6.412;2022-07-18T04:08:19;12.70;99.90
25536;DHT22;13431;51.352;6.412;2022-07-18T04:10:46;12.90;99.90
25536;DHT22;13431;51.352;6.412;2022-07-18T04:13:14;13.10;99.90
25536;DHT22;13431;51.352;6.412;2022-07-18T04:15:42;13.30;99.90
25536;DHT22;13431;51.352;6.412;2022-07-18T04:18:09;13.40;99.90
25536;DHT22;13431;51.352;6.412;2022-07-18T04:20:37;13.50;99.90
25536;DHT22;13431;51.352;6.412;2022-07-18T04:23:08;13.70;99.90
25536;DHT22;13431;51.352;6.412;2022-07-18T04:25:38;13.90;99.90
25536;DHT22;13431;51.352;6.412;2022-07-18T04:28:08;14.10;99.90
25536;DHT22;13431;51.352;6.412;2022-07-18T04:30:36;14.30;99.90
25536;DHT22;13431;51.352;6.412;2022-07-18T04:33:06;14.60;99.90
25536;DHT22;13431;51.352;6.412;2022-07-18T04:35:34;14.90;99.90
25536;DHT22;13431;51.352;6.412;2022-07-18T04:38:07;15.50;99.90
25536;DHT22;13431;51.352;6.412;2022-07-18T04:40:36;16.50;99.90
25536;DHT22;13431;51.352;6.412;2022-07-18T04:43:04;17.40;99.90
25536;DHT22;13431;51.352;6.412;2022-07-18T04:45:33;18.10;99.90
25536;DHT22;13431;51.352;6.412;2022-07-18T04:48:02;18.90;99.90
25536;DHT22;13431;51.352;6.412;2022-07-18T04:50:29;19.60;99.90
25536;DHT22;13431;51.352;6.412;2022-07-18T04:52:58;20.40;99.90
25536;DHT22;13431;51.352;6.412;2022-07-18T04:55:26;21.10;99.90
25536;DHT22;13431;51.352;6.412;2022-07-18T04:57:53;21.70;99.90
25536;DHT22;13431;51.352;6.412;2022-07-18T05:00:25;22.20;99.90
25536;DHT22;13431;51.352;6.412;2022-07-18T05:02:55;22.40;99.90
25536;DHT22;13431;51.352;6.412;2022-07-18T05:05:25;22.80;99.90
25536;DHT22;13431;51.352;6.412;2022-07-18T05:08:00;23.20;99.90
25536;DHT22;13431;51.352;6.412;2022-07-18T05:10:27;23.70;99.90
25536;DHT22;13431;51.352;6.412;2022-07-18T05:12:54;23.40;99.90
25536;DHT22;13431;51.352;6.412;2022-07-18T05:15:23;23.10;99.90
25536;DHT22;13431;51.352;6.412;2022-07-18T05:17:52;22.70;99.90
25536;DHT22;13431;51.352;6.412;2022-07-18T05:20:22;22.90;99.90
25536;DHT22;13431;51.352;6.412;2022-07-18T05:22:49;23.60;99.90
25536;DHT22;13431;51.352;6.412;2022-07-18T05:25:19;24.40;99.90
25536;DHT22;13431;51.352;6.412;2022-07-18T05:27:47;25.10;99.90
25536;DHT22;13431;51.352;6.412;2022-07-18T05:30:14;25.30;99.80
25536;DHT22;13431;51.352;6.412;2022-07-18T05:32:43;25.60;98.80
25536;DHT22;13431;51.352;6.412;2022-07-18T05:35:11;26.00;98.20
25536;DHT22;13431;51.352;6.412;2022-07-18T05:37:41;26.40;97.60
25536;DHT22;13431;51.352;6.412;2022-07-18T05:40:11;27.00;96.80
25536;DHT22;13431;51.352;6.412;2022-07-18T05:42:38;27.70;96.00
25536;DHT22;13431;51.352;6.412;2022-07-18T05:45:24;28.20;94.90
25536;DHT22;13431;51.352;6.412;2022-07-18T05:47:55;28.90;93.50
25536;DHT22;13431;51.352;6.412;2022-07-18T05:50:23;29.40;92.60
25536;DHT22;13431;51.352;6.412;2022-07-18T05:52:52;29.90;91.70
25536;DHT22;13431;51.352;6.412;2022-07-18T05:55:19;29.90;89.70
25536;DHT22;13431;51.352;6.412;2022-07-18T05:57:47;30.10;89.70
25536;DHT22;13431;51.352;6.412;2022-07-18T06:00:15;30.40;88.20
25536;DHT22;13431;51.352;6.412;2022-07-18T06:02:42;31.10;86.70
25536;DHT22;13431;51.352;6.412;2022-07-18T06:05:10;31.30;84.60
25536;DHT22;13431;51.352;6.412;2022-07-18T06:07:49;32.10;82.70
25536;DHT22;13431;51.352;6.412;2022-07-18T06:10:17;32.30;78.80
25536;DHT22;13431;51.352;6.412;2022-07-18T06:12:44;32.60;77.90
25536;DHT22;13431;51.352;6.412;2022-07-18T06:15:12;33.00;75.10
25536;DHT22;13431;51.352;6.412;2022-07-18T06:17:40;33.30;73.80
25536;DHT22;13431;51.352;6.412;2022-07-18T06:20:08;32.90;72.60
25536;DHT22;13431;51.352;6.412;2022-07-18T06:22:36;32.90;72.80
25536;DHT22;13431;51.352;6.412;2022-07-18T06:25:05;32.60;71.70
25536;DHT22;13431;51.352;6.412;2022-07-18T06:27:32;32.90;70.50
25536;DHT22;13431;51.352;6.412;2022-07-18T06:30:00;33.90;68.60
25536;DHT22;13431;51.352;6.412;2022-07-18T06:32:27;34.60;67.40
25536;DHT22;13431;51.352;6.412;2022-07-18T06:34:54;34.80;65.40
25536;DHT22;13431;51.352;6.412;2022-07-18T06:37:25;35.40;61.90
25536;DHT22;13431;51.352;6.412;2022-07-18T06:39:52;35.20;61.80
25536;DHT22;13431;51.352;6.412;2022-07-18T06:42:20;35.00;59.20
25536;DHT22;13431;51.352;6.412;2022-07-18T06:44:48;35.20;58.80
25536;DHT22;13431;51.352;6.412;2022-07-18T06:47:15;35.80;58.60
25536;DHT22;13431;51.352;6.412;2022-07-18T06:49:42;36.10;57.20
25536;DHT22;13431;51.352;6.412;2022-07-18T06:52:10;37.10;56.50
25536;DHT22;13431;51.352;6.412;2022-07-18T06:54:39;36.70;55.00
25536;DHT22;13431;51.352;6.412;2022-07-18T06:57:08;37.10;53.70
25536;DHT22;13431;51.352;6.412;2022-07-18T06:59:36;37.00;52.70
25536;DHT22;13431;51.352;6.412;2022-07-18T07:02:04;37.10;53.50
25536;DHT22;13431;51.352;6.412;2022-07-18T07:04:31;37.30;52.90
25536;DHT22;13431;51.352;6.412;2022-07-18T07:06:59;37.00;53.10
25536;DHT22;13431;51.352;6.412;2022-07-18T07:09:28;37.50;52.30
25536;DHT22;13431;51.352;6.412;2022-07-18T07:11:56;37.50;51.50
25536;DHT22;13431;51.352;6.412;2022-07-18T07:14:26;37.50;50.60
25536;DHT22;13431;51.352;6.412;2022-07-18T07:16:53;36.80;49.80
25536;DHT22;13431;51.352;6.412;2022-07-18T07:19:21;36.10;50.00
25536;DHT22;13431;51.352;6.412;2022-07-18T07:21:48;35.90;50.50
25536;DHT22;13431;51.352;6.412;2022-07-18T07:24:16;36.80;50.20
25536;DHT22;13431;51.352;6.412;2022-07-18T07:26:43;37.50;49.40
25536;DHT22;13431;51.352;6.412;2022-07-18T07:29:11;38.30;49.30
25536;DHT22;13431;51.352;6.412;2022-07-18T07:31:38;38.90;48.00
25536;DHT22;13431;51.352;6.412;2022-07-18T07:34:06;38.50;46.30
25536;DHT22;13431;51.352;6.412;2022-07-18T07:36:33;38.80;46.00
25536;DHT22;13431;51.352;6.412;2022-07-18T07:39:01;38.90;46.20
25536;DHT22;13431;51.352;6.412;2022-07-18T07:41:28;38.50;45.60
25536;DHT22;13431;51.352;6.412;2022-07-18T07:43:56;39.80;46.30
25536;DHT22;13431;51.352;6.412;2022-07-18T07:46:23;40.20;45.00
25536;DHT22;13431;51.352;6.412;2022-07-18T07:48:51;40.90;43.50
25536;DHT22;13431;51.352;6.412;2022-07-18T07:51:18;41.90;43.10
25536;DHT22;13431;51.352;6.412;2022-07-18T07:54:01;42.10;42.10
25536;DHT22;13431;51.352;6.412;2022-07-18T07:56:31;43.20;41.70
25536;DHT22;13431;51.352;6.412;2022-07-18T07:58:59;43.70;40.30
25536;DHT22;13431;51.352;6.412;2022-07-18T08:01:28;42.80;39.40
25536;DHT22;13431;51.352;6.412;2022-07-18T08:03:55;42.70;39.20
25536;DHT22;13431;51.352;6.412;2022-07-18T08:06:23;42.80;39.50
25536;DHT22;13431;51.352;6.412;2022-07-18T08:08:50;42.20;38.70
25536;DHT22;13431;51.352;6.412;2022-07-18T08:11:25;42.10;38.70
25536;DHT22;13431;51.352;6.412;2022-07-18T08:13:55;42.30;38.30
25536;DHT22;13431;51.352;6.412;2022-07-18T08:16:24;42.40;38.30
25536;DHT22;13431;51.352;6.412;2022-07-18T08:18:54;41.70;38.00
25536;DHT22;13431;51.352;6.412;2022-07-18T08:21:21;42.30;37.90
25536;DHT22;13431;51.352;6.412;2022-07-18T08:23:49;43.40;37.80
25536;DHT22;13431;51.352;6.412;2022-07-18T08:26:16;43.60;36.90
25536;DHT22;13431;51.352;6.412;2022-07-18T08:28:44;43.80;37.60
25536;DHT22;13431;51.352;6.412;2022-07-18T08:31:11;44.10;35.50
25536;DHT22;13431;51.352;6.412;2022-07-18T08:33:39;44.50;35.40
25536;DHT22;13431;51.352;6.412;2022-07-18T08:36:09;44.90;35.20
25536;DHT22;13431;51.352;6.412;2022-07-18T08:38:37;45.40;34.60
25536;DHT22;13431;51.352;6.412;2022-07-18T08:41:05;45.80;34.20
25536;DHT22;13431;51.352;6.412;2022-07-18T08:43:33;46.00;32.00
25536;DHT22;13431;51.352;6.412;2022-07-18T08:46:03;46.10;32.90
25536;DHT22;13431;51.352;6.412;2022-07-18T08:48:31;45.30;32.00
25536;DHT22;13431;51.352;6.412;2022-07-18T08:50:59;45.60;32.30
25536;DHT22;13431;51.352;6.412;2022-07-18T08:53:28;46.30;32.70
25536;DHT22;13431;51.352;6.412;2022-07-18T08:55:56;46.30;32.80
25536;DHT22;13431;51.352;6.412;2022-07-18T08:58:23;45.70;32.30
25536;DHT22;13431;51.352;6.412;2022-07-18T09:01:11;45.70;31.00
25536;DHT22;13431;51.352;6.412;2022-07-18T09:03:38;46.80;31.70
25536;DHT22;13431;51.352;6.412;2022-07-18T09:06:11;47.20;30.30
25536;DHT22;13431;51.352;6.412;2022-07-18T09:09:00;47.70;31.00
25536;DHT22;13431;51.352;6.412;2022-07-18T09:11:28;47.50;31.20
25536;DHT22;13431;51.352;6.412;2022-07-18T09:14:39;47.80;30.30
25536;DHT22;13431;51.352;6.412;2022-07-18T09:19:37;47.30;28.30
25536;DHT22;13431;51.352;6.412;2022-07-18T09:22:35;46.90;28.80
25536;DHT22;13431;51.352;6.412;2022-07-18T09:32:40;47.10;27.10
25536;DHT22;13431;51.352;6.412;2022-07-18T09:35:17;47.30;28.20
25536;DHT22;13431;51.352;6.412;2022-07-18T09:37:54;47.70;27.50
25536;DHT22;13431;51.352;6.412;2022-07-18T09:40:29;47.20;27.70
25536;DHT22;13431;51.352;6.412;2022-07-18T09:42:59;47.00;27.70
25536;DHT22;13431;51.352;6.412;2022-07-18T09:45:36;47.10;27.50
25536;DHT22;13431;51.352;6.412;2022-07-18T09:48:08;47.50;26.80
25536;DHT22;13431;51.352;6.412;2022-07-18T09:50:41;47.00;27.70
25536;DHT22;13431;51.352;6.412;2022-07-18T09:53:15;47.10;27.40
25536;DHT22;13431;51.352;6.412;2022-07-18T09:58:35;45.60;27.30
25536;DHT22;13431;51.352;6.412;2022-07-18T10:01:03;46.00;27.00
25536;DHT22;13431;51.352;6.412;2022-07-18T10:03:31;47.10;27.00
25536;DHT22;13431;51.352;6.412;2022-07-18T10:06:00;47.30;27.00
25536;DHT22;13431;51.352;6.412;2022-07-18T10:08:32;47.20;27.00
25536;DHT22;13431;51.352;6.412;2022-07-18T10:11:02;47.10;26.80
25536;DHT22;13431;51.352;6.412;2022-07-18T10:13:31;47.00;26.90
25536;DHT22;13431;51.352;6.412;2022-07-18T10:15:59;47.40;26.80
25536;DHT22;13431;51.352;6.412;2022-07-18T10:18:29;46.50;26.00
25536;DHT22;13431;51.352;6.412;2022-07-18T10:23:47;46.70;26.20
25536;DHT22;13431;51.352;6.412;2022-07-18T10:26:23;46.70;27.20
25536;DHT22;13431;51.352;6.412;2022-07-18T10:31:34;44.20;27.40
25536;DHT22;13431;51.352;6.412;2022-07-18T10:34:09;44.50;27.40
25536;DHT22;13431;51.352;6.412;2022-07-18T10:37:24;45.20;27.60
25536;DHT22;13431;51.352;6.412;2022-07-18T10:39:36;44.80;26.60
25536;DHT22;13431;51.352;6.412;2022-07-18T10:57:32;35.90;32.40
25536;DHT22;13431;51.352;6.412;2022-07-18T11:00:07;36.00;33.80
25536;DHT22;13431;51.352;6.412;2022-07-18T11:02:38;35.60;34.40
25536;DHT22;13431;51.352;6.412;2022-07-18T11:16:22;34.70;35.80
25536;DHT22;13431;51.352;6.412;2022-07-18T11:21:30;35.10;34.10
25536;DHT22;13431;51.352;6.412;2022-07-18T11:24:07;34.80;33.80
25536;DHT22;13431;51.352;6.412;2022-07-18T11:26:36;35.10;34.40
25536;DHT22;13431;51.352;6.412;2022-07-18T11:29:06;35.10;34.00
25536;DHT22;13431;51.352;6.412;2022-07-18T11:31:57;35.50;35.30
25536;DHT22;13431;51.352;6.412;2022-07-18T11:34:25;36.00;36.10
25536;DHT22;13431;51.352;6.412;2022-07-18T11:37:06;36.40;33.20
25536;DHT22;13431;51.352;6.412;2022-07-18T11:39:34;36.50;33.30
25536;DHT22;13431;51.352;6.412;2022-07-18T11:42:04;36.50;35.50
25536;DHT22;13431;51.352;6.412;2022-07-18T11:44:32;36.30;32.70
25536;DHT22;13431;51.352;6.412;2022-07-18T11:47:07;36.10;33.10
25536;DHT22;13431;51.352;6.412;2022-07-18T11:49:35;36.20;33.50
25536;DHT22;13431;51.352;6.412;2022-07-18T11:52:04;35.80;32.50
25536;DHT22;13431;51.352;6.412;2022-07-18T11:54:32;35.80;32.90
25536;DHT22;13431;51.352;6.412;2022-07-18T11:57:00;35.90;35.80
25536;DHT22;13431;51.352;6.412;2022-07-18T11:59:41;36.30;34.30
25536;DHT22;13431;51.352;6.412;2022-07-18T12:02:11;36.30;32.40
25536;DHT22;13431;51.352;6.412;2022-07-18T12:04:40;36.10;33.70
25536;DHT22;13431;51.352;6.412;2022-07-18T12:07:24;36.50;34.30
25536;DHT22;13431;51.352;6.412;2022-07-18T12:09:52;36.40;32.90
25536;DHT22;13431;51.352;6.412;2022-07-18T12:12:22;36.00;33.30
25536;DHT22;13431;51.352;6.412;2022-07-18T12:15:00;36.30;34.20
25536;DHT22;13431;51.352;6.412;2022-07-18T12:17:30;35.90;35.90
25536;DHT22;13431;51.352;6.412;2022-07-18T12:23:08;35.60;34.40
25536;DHT22;13431;51.352;6.412;2022-07-18T12:25:42;35.30;34.70
25536;DHT22;13431;51.352;6.412;2022-07-18T12:28:14;34.80;34.00
25536;DHT22;13431;51.352;6.412;2022-07-18T12:30:42;34.60;34.40
25536;DHT22;13431;51.352;6.412;2022-07-18T12:33:10;34.30;35.30
25536;DHT22;13431;51.352;6.412;2022-07-18T12:35:38;34.00;36.50
25536;DHT22;13431;51.352;6.412;2022-07-18T12:38:08;34.10;37.90
25536;DHT22;13431;51.352;6.412;2022-07-18T12:40:49;34.00;36.10
25536;DHT22;13431;51.352;6.412;2022-07-18T12:43:36;33.90;37.80
25536;DHT22;13431;51.352;6.412;2022-07-18T12:46:08;33.80;36.40
25536;DHT22;13431;51.352;6.412;2022-07-18T12:48:37;33.40;35.80
25536;DHT22;13431;51.352;6.412;2022-07-18T12:51:08;33.40;36.10
25536;DHT22;13431;51.352;6.412;2022-07-18T12:53:38;33.50;37.00
25536;DHT22;13431;51.352;6.412;2022-07-18T12:56:07;33.70;37.10
25536;DHT22;13431;51.352;6.412;2022-07-18T12:58:34;33.60;38.80
25536;DHT22;13431;51.352;6.412;2022-07-18T13:01:02;33.70;39.20
25536;DHT22;13431;51.352;6.412;2022-07-18T13:03:34;33.60;37.80
25536;DHT22;13431;51.352;6.412;2022-07-18T13:06:02;33.50;37.20
25536;DHT22;13431;51.352;6.412;2022-07-18T13:08:30;33.50;37.60
25536;DHT22;13431;51.352;6.412;2022-07-18T13:10:58;33.50;37.40
25536;DHT22;13431;51.352;6.412;2022-07-18T13:13:25;33.40;36.70
25536;DHT22;13431;51.352;6.412;2022-07-18T13:15:53;33.30;37.50
25536;DHT22;13431;51.352;6.412;2022-07-18T13:18:20;33.50;38.80
25536;DHT22;13431;51.352;6.412;2022-07-18T13:20:48;33.50;36.50
25536;DHT22;13431;51.352;6.412;2022-07-18T13:23:16;33.20;37.00
25536;DHT22;13431;51.352;6.412;2022-07-18T13:25:44;33.00;35.00
25536;DHT22;13431;51.352;6.412;2022-07-18T13:28:12;33.10;35.60
25536;DHT22;13431;51.352;6.412;2022-07-18T13:30:39;33.10;35.20
25536;DHT22;13431;51.352;6.412;2022-07-18T13:33:07;33.10;35.50
25536;DHT22;13431;51.352;6.412;2022-07-18T13:35:34;33.30;36.90
25536;DHT22;13431;51.352;6.412;2022-07-18T13:38:02;33.20;37.10
25536;DHT22;13431;51.352;6.412;2022-07-18T13:40:29;33.00;37.30
25536;DHT22;13431;51.352;6.412;2022-07-18T13:42:57;33.00;37.80
25536;DHT22;13431;51.352;6.412;2022-07-18T13:45:25;33.00;37.70
25536;DHT22;13431;51.352;6.412;2022-07-18T13:47:52;33.00;36.10
25536;DHT22;13431;51.352;6.412;2022-07-18T13:50:20;32.80;35.40
25536;DHT22;13431;51.352;6.412;2022-07-18T13:52:47;32.70;36.60
25536;DHT22;13431;51.352;6.412;2022-07-18T13:55:14;32.80;37.90
25536;DHT22;13431;51.352;6.412;2022-07-18T13:57:42;32.80;35.50
25536;DHT22;13431;51.352;6.412;2022-07-18T14:00:10;32.80;34.90
25536;DHT22;13431;51.352;6.412;2022-07-18T14:02:38;32.80;35.90
25536;DHT22;13431;51.352;6.412;2022-07-18T14:05:06;32.80;37.40
25536;DHT22;13431;51.352;6.412;2022-07-18T14:07:43;32.90;38.20
25536;DHT22;13431;51.352;6.412;2022-07-18T14:10:12;32.90;36.90
25536;DHT22;13431;51.352;6.412;2022-07-18T14:12:40;32.90;36.50
25536;DHT22;13431;51.352;6.412;2022-07-18T14:15:08;32.90;38.70
25536;DHT22;13431;51.352;6.412;2022-07-18T14:17:36;32.80;35.90
25536;DHT22;13431;51.352;6.412;2022-07-18T14:20:04;32.80;36.70
25536;DHT22;13431;51.352;6.412;2022-07-18T14:22:34;32.60;35.60
25536;DHT22;13431;51.352;6.412;2022-07-18T14:25:02;32.70;36.20
25536;DHT22;13431;51.352;6.412;2022-07-18T14:27:30;32.70;36.70
25536;DHT22;13431;51.352;6.412;2022-07-18T14:29:58;32.70;37.20
25536;DHT22;13431;51.352;6.412;2022-07-18T14:32:27;32.70;37.00
25536;DHT22;13431;51.352;6.412;2022-07-18T14:34:54;32.70;37.00
25536;DHT22;13431;51.352;6.412;2022-07-18T14:37:22;32.60;36.00
25536;DHT22;13431;51.352;6.412;2022-07-18T14:39:50;32.60;37.30
25536;DHT22;13431;51.352;6.412;2022-07-18T14:42:23;32.50;36.70
25536;DHT22;13431;51.352;6.412;2022-07-18T14:44:52;32.50;35.60
25536;DHT22;13431;51.352;6.412;2022-07-18T14:47:20;32.40;36.10
25536;DHT22;13431;51.352;6.412;2022-07-18T14:49:47;32.50;36.50
25536;DHT22;13431;51.352;6.412;2022-07-18T14:52:15;32.70;36.10
25536;DHT22;13431;51.352;6.412;2022-07-18T14:54:42;32.60;35.80
25536;DHT22;13431;51.352;6.412;2022-07-18T14:57:10;32.50;36.00
25536;DHT22;13431;51.352;6.412;2022-07-18T14:59:37;32.50;36.90
25536;DHT22;13431;51.352;6.412;2022-07-18T15:02:05;32.50;36.90
25536;DHT22;13431;51.352;6.412;2022-07-18T15:04:34;32.50;36.30
25536;DHT22;13431;51.352;6.412;2022-07-18T15:07:03;32.40;36.90
25536;DHT22;13431;51.352;6.412;2022-07-18T15:09:30;32.50;38.60
25536;DHT22;13431;51.352;6.412;2022-07-18T15:12:01;32.50;36.60
25536;DHT22;13431;51.352;6.412;2022-07-18T15:14:29;32.50;36.70
25536;DHT22;13431;51.352;6.412;2022-07-18T15:16:57;32.40;36.30
25536;DHT22;13431;51.352;6.412;2022-07-18T15:19:25;32.40;36.10
25536;DHT22;13431;51.352;6.412;2022-07-18T15:21:52;32.40;37.50
25536;DHT22;13431;51.352;6.412;2022-07-18T15:24:19;32.30;36.40
25536;DHT22;13431;51.352;6.412;2022-07-18T15:26:47;32.30;38.50
25536;DHT22;13431;51.352;6.412;2022-07-18T15:29:14;32.40;38.10
25536;DHT22;13431;51.352;6.412;2022-07-18T15:31:41;32.30;37.30
25536;DHT22;13431;51.352;6.412;2022-07-18T15:34:09;32.20;37.50
25536;DHT22;13431;51.352;6.412;2022-07-18T15:36:36;32.20;36.70
25536;DHT22;13431;51.352;6.412;2022-07-18T15:39:04;32.10;37.50
25536;DHT22;13431;51.352;6.412;2022-07-18T15:41:31;32.00;37.00
25536;DHT22;13431;51.352;6.412;2022-07-18T15:43:59;32.00;38.00
25536;DHT22;13431;51.352;6.412;2022-07-18T15:46:27;32.00;37.50
25536;DHT22;13431;51.352;6.412;2022-07-18T15:48:55;32.10;37.90
25536;DHT22;13431;51.352;6.412;2022-07-18T15:51:23;32.00;37.20
25536;DHT22;13431;51.352;6.412;2022-07-18T15:53:50;31.90;37.80
25536;DHT22;13431;51.352;6.412;2022-07-18T15:56:18;31.90;37.40
25536;DHT22;13431;51.352;6.412;2022-07-18T15:58:45;31.90;37.70
25536;DHT22;13431;51.352;6.412;2022-07-18T16:01:13;31.90;37.30
25536;DHT22;13431;51.352;6.412;2022-07-18T16:03:40;31.90;37.30
25536;DHT22;13431;51.352;6.412;2022-07-18T16:06:07;31.80;37.20
25536;DHT22;13431;51.352;6.412;2022-07-18T16:08:35;31.80;37.70
25536;DHT22;13431;51.352;6.412;2022-07-18T16:11:03;31.90;38.80
25536;DHT22;13431;51.352;6.412;2022-07-18T16:13:31;31.90;39.30
25536;DHT22;13431;51.352;6.412;2022-07-18T16:15:58;31.80;38.50
25536;DHT22;13431;51.352;6.412;2022-07-18T16:18:26;31.80;37.80
25536;DHT22;13431;51.352;6.412;2022-07-18T16:20:53;31.70;37.00
25536;DHT22;13431;51.352;6.412;2022-07-18T16:23:21;31.60;37.30
25536;DHT22;13431;51.352;6.412;2022-07-18T16:25:48;31.60;37.70
25536;DHT22;13431;51.352;6.412;2022-07-18T16:28:16;31.60;37.00
25536;DHT22;13431;51.352;6.412;2022-07-18T16:30:43;31.60;36.90
25536;DHT22;13431;51.352;6.412;2022-07-18T16:33:11;31.50;38.00